Eastern Iowa Airport (CID)


Airport Diagram
Current Weather/Forecast (VFR Conditions)
METAR KCID 300752Z AUTO 33005KT 10SM OVC070 M01/M02 A3019 RMK AO2 SLP231 T10061022
TAF KCID 300520Z 3006/3106 33006KT P6SM BKN060 FM301800 11005KT P6SM SCT100

All Charts
General
Chart Name Download
AIRPORT DIAGRAM
TAKEOFF MINIMUMS
ALTERNATE MINIMUMS
HOT SPOT

Approaches
Chart Name Download
ILS OR LOC RWY 09
ILS OR LOC RWY 27
RNAV (GPS) RWY 09
RNAV (GPS) RWY 13
RNAV (GPS) RWY 27
RNAV (GPS) RWY 31